CDT,Max TemperatureF,Mean TemperatureF,Min TemperatureF,Max Dew PointF,MeanDew PointF,Min DewpointF,Max Humidity, Mean Humidity, Min Humidity, Max Sea Level PressureIn, Mean Sea Level PressureIn, Min Sea Level PressureIn, Max VisibilityMiles, Mean VisibilityMiles, Min VisibilityMiles, Max Wind SpeedMPH, Mean Wind SpeedMPH, Max Gust SpeedMPH,PrecipitationIn, CloudCover, Events, WindDirDegrees
2013-9-1,75,66,55,66,57,54,94,72,50,30.06,29.96,29.87,10,10,10,18,8,26,0.00,1,,353
2013-9-2,73,62,50,54,50,46,94,70,38,30.13,30.08,30.05,10,10,10,10,3,,0.00,0,,43
2013-9-3,80,66,51,66,58,48,94,76,53,30.09,30.05,30.02,10,10,10,12,5,16,0.00,0,,180
2013-9-4,86,74,62,66,63,61,94,73,45,30.15,30.11,30.05,10,9,4,7,3,,0.00,0,,170
2013-9-5,82,74,66,70,65,63,94,76,58,30.20,30.15,30.10,10,10,10,12,5,16,0.00,2,Thunderstorm,165
2013-9-6,87,76,64,72,66,61,94,73,49,30.09,29.98,29.90,10,10,10,17,8,23,0.00,0,,187
2013-9-7,87,76,66,70,68,64,100,75,49,30.02,29.96,29.91,10,8,2,10,3,17,0.00,0,,75
2013-9-8,77,72,66,70,67,64,94,84,74,30.02,29.95,29.86,10,8,5,14,6,21,0.00,5,,120
2013-9-9,89,79,69,68,66,64,94,72,43,29.89,29.77,29.72,10,8,2,15,9,22,0.12,3,Rain-Thunderstorm,214
2013-9-10,78,72,66,66,65,61,100,80,57,30.07,29.98,29.87,10,10,10,12,4,,0.03,3,Rain-Thunderstorm,282
2013-9-11,82,70,57,64,57,46,100,65,32,30.18,30.11,30.06,10,9,0,10,3,,0.00,2,Fog,314
2013-9-12,73,63,53,48,46,41,77,53,31,30.28,30.24,30.18,10,10,10,13,6,22,0.00,0,,34
2013-9-13,71,60,48,48,46,43,87,63,41,30.26,30.19,30.07,10,10,10,10,3,,0.00,0,,167
2013-9-14,66,57,48,55,50,45,87,73,56,30.07,29.94,29.81,10,10,10,17,9,26,0.00,4,Rain,191
2013-9-15,64,58,51,57,54,48,100,83,59,30.31,30.10,29.81,10,10,7,22,9,30,0.03,6,Rain-Thunderstorm,47
2013-9-16,66,55,44,48,47,45,100,77,49,30.37,30.29,30.19,10,9,0,14,4,20,0.00,2,Fog,150
2013-9-17,62,56,51,61,55,48,100,91,82,30.19,30.02,29.86,10,6,0,16,11,22,0.01,7,Rain,170
2013-9-18,86,74,62,70,67,63,100,80,55,29.85,29.73,29.66,10,7,0,18,11,23,0.00,4,Fog,188
2013-9-19,73,63,51,66,58,46,100,77,41,29.96,29.79,29.65,10,10,3,23,8,36,0.46,2,Rain-Thunderstorm,321
2013-9-20,60,52,44,48,44,39,93,74,45,30.01,29.98,29.95,10,10,10,17,9,28,0.00,4,,311
2013-9-21,71,54,37,46,40,36,100,65,27,30.01,29.95,29.87,10,10,10,7,1,,0.00,0,,144
2013-9-22,80,66,51,52,48,43,88,57,28,29.87,29.80,29.74,10,10,10,25,12,32,0.00,0,,175
2013-9-23,77,66,55,52,48,45,77,57,32,29.86,29.79,29.76,10,10,10,21,14,30,0.00,0,,173
2013-9-24,71,62,53,55,52,48,88,72,50,29.95,29.91,29.86,10,10,10,8,4,,0.00,2,Rain,122
2013-9-25,75,63,51,55,52,48,100,70,38,29.94,29.86,29.76,10,10,7,17,7,23,0.00,0,,156
2013-9-26,84,72,60,59,56,54,88,61,35,29.81,29.76,29.72,10,10,10,28,17,38,0.00,0,,172
2013-9-27,78,72,66,63,60,57,88,67,51,29.81,29.77,29.71,10,10,7,24,13,31,0.09,2,Rain-Thunderstorm,177
2013-9-28,71,58,46,59,47,36,100,73,37,29.96,29.82,29.66,10,9,2,20,9,30,0.21,4,Rain,277
2013-9-29,78,58,39,43,41,37,93,55,23,29.96,29.86,29.74,10,10,10,20,8,28,0.00,0,,197
2013-9-30,80,68,55,50,45,43,67,47,26,29.74,29.65,29.59,10,10,10,20,13,26,0.00,0,,209